Time;durP1;ratioP1;P1;durP2;ratioP2;P2;SDS_P1;SDS_P2;PMS_P1;PMS_P2;Temp;Humidity;BMP_temperature;BMP_pressure;BME280_temperature;BME280_humidity;BME280_pressure;Samples;Min_cycle;Max_cycle;Signal;HPM_P1;HPM_P2
2022/11/19 00:01:30;;;;;;;11.43;4.03;;;;;;;9.63;80.06;99769.97;4191275;28;20486;-76
2022/11/19 00:03:35;;;;;;;9.70;3.80;;;;;;;9.62;79.62;99766.50;4195305;28;20036;-75
2022/11/19 00:05:38;;;;;;;;;;;;;;;9.54;80.37;99773.38;4186460;28;20037;-75
2022/11/19 00:07:41;;;;;;;11.52;3.70;;;;;;;9.56;80.49;99771.63;4189459;28;19920;-76
2022/11/19 00:09:44;;;;;;;6.40;3.50;;;;;;;9.61;80.07;99767.38;4189086;28;20051;-75
2022/11/19 00:14:23;;;;;;;8.45;3.67;;;;;;;9.55;79.92;99769.91;4153303;28;20049;-75
2022/11/19 00:16:27;;;;;;;6.65;3.45;;;;;;;9.54;80.25;99769.03;4155799;28;20511;-75
2022/11/19 00:18:31;;;;;;;10.07;5.17;;;;;;;9.54;80.40;99778.56;4161276;28;20057;-75
2022/11/19 00:20:36;;;;;;;8.95;4.05;;;;;;;9.54;80.43;99776.81;4192900;28;20287;-75
2022/11/19 00:22:40;;;;;;;8.05;4.63;;;;;;;9.57;80.37;99769.06;4197158;28;20036;-75
2022/11/19 00:24:43;;;;;;;7.20;4.10;;;;;;;9.55;79.95;99769.91;4186284;28;20087;-75
2022/11/19 00:26:46;;;;;;;9.52;4.35;;;;;;;9.56;80.09;99776.84;4191391;28;20123;-75
2022/11/19 00:28:49;;;;;;;7.10;3.85;;;;;;;9.54;79.75;99765.59;4189834;28;20457;-75
2022/11/19 00:30:53;;;;;;;8.35;3.72;;;;;;;9.54;79.84;99773.38;4188201;28;20036;-75
2022/11/19 00:32:56;;;;;;;9.48;4.15;;;;;;;9.51;79.90;99774.22;4197587;28;20086;-76
2022/11/19 00:34:59;;;;;;;8.07;3.83;;;;;;;9.50;80.05;99766.41;4194341;28;20037;-76
2022/11/19 00:37:01;;;;;;;12.32;3.95;;;;;;;9.49;79.67;99759.47;4197028;28;20048;-75
2022/11/19 00:39:04;;;;;;;13.48;5.07;;;;;;;9.48;79.73;99770.75;4194903;28;20036;-76
2022/11/19 00:41:08;;;;;;;10.27;3.90;;;;;;;9.49;80.33;99767.25;4195689;28;20044;-76
2022/11/19 00:45:31;;;;;;;15.07;8.65;;;;;;;9.43;79.78;99766.38;4181873;28;20037;-75
2022/11/19 00:47:35;;;;;;;9.80;5.30;;;;;;;9.46;80.19;99773.28;4193011;28;20044;-72
2022/11/19 00:49:38;;;;;;;8.00;4.28;;;;;;;9.50;79.95;99771.59;4197008;28;20105;-72
2022/11/19 00:51:41;;;;;;;10.43;3.80;;;;;;;9.46;79.98;99769.84;4194136;28;20518;-73
2022/11/19 00:53:44;;;;;;;9.13;3.78;;;;;;;9.48;79.97;99762.94;4183594;28;20045;-72
2022/11/19 00:55:46;;;;;;;7.68;3.80;;;;;;;9.44;80.11;99767.22;4194687;28;20045;-72
2022/11/19 00:57:49;;;;;;;11.52;4.75;;;;;;;9.40;79.73;99762.88;4185100;28;20045;-73
2022/11/19 00:59:52;;;;;;;8.05;3.80;;;;;;;9.40;80.08;99763.75;4185988;28;20417;-72
2022/11/19 01:01:55;;;;;;;7.32;3.38;;;;;;;9.44;80.12;99765.50;4196706;28;20051;-72
2022/11/19 01:03:59;;;;;;;9.52;3.38;;;;;;;9.46;80.26;99769.84;4182458;28;20086;-72
2022/11/19 01:06:02;;;;;;;10.38;3.75;;;;;;;9.47;79.93;99771.59;4178437;28;20095;-72
2022/11/19 01:08:05;;;;;;;8.80;4.07;;;;;;;9.49;79.81;99775.03;4189574;28;20045;-71
2022/11/19 01:10:08;;;;;;;9.90;4.70;;;;;;;9.47;79.77;99776.78;4196560;28;20036;-71
2022/11/19 01:12:11;;;;;;;13.38;4.82;;;;;;;9.49;80.30;99775.94;4190065;28;20082;-72
2022/11/19 01:14:13;;;;;;;5.82;3.95;;;;;;;9.51;80.20;99778.53;4184069;28;20048;-72
2022/11/19 01:16:19;;;;;;;14.38;5.95;;;;;;;9.53;79.79;99784.59;4191450;28;20032;-72
2022/11/19 01:18:21;;;;;;;13.27;4.72;;;;;;;9.53;79.81;99772.47;4196832;28;20036;-72
2022/11/19 01:20:26;;;;;;;11.75;4.50;;;;;;;9.52;79.77;99775.06;4193724;28;20086;-72
2022/11/19 01:22:29;;;;;;;8.85;4.78;;;;;;;9.53;80.18;99771.63;4180174;28;20047;-71
2022/11/19 01:24:32;;;;;;;10.38;5.00;;;;;;;9.54;80.04;99769.03;4182249;28;20039;-71
2022/11/19 01:26:34;;;;;;;12.30;5.43;;;;;;;9.53;80.24;99775.06;4181988;28;20090;-71
2022/11/19 01:28:38;;;;;;;9.80;4.35;;;;;;;9.52;80.01;99768.16;4190986;28;20090;-71
2022/11/19 01:30:43;;;;;;;11.77;5.65;;;;;;;9.48;80.09;99779.38;4198140;28;20040;-72
2022/11/19 01:32:45;;;;;;;11.00;5.65;;;;;;;9.45;79.63;99779.34;4194942;28;20076;-72
2022/11/19 01:34:49;;;;;;;10.60;4.82;;;;;;;9.47;79.58;99775.03;4196991;28;20083;-72
2022/11/19 01:36:53;;;;;;;11.45;4.15;;;;;;;9.48;79.96;99773.34;4182876;28;20045;-72
2022/11/19 01:38:56;;;;;;;10.48;4.95;;;;;;;9.47;80.08;99779.38;4165220;28;20129;-72
2022/11/19 01:41:00;;;;;;;10.90;4.40;;;;;;;9.45;80.06;99776.75;4182665;28;20044;-72
2022/11/19 01:43:02;;;;;;;9.00;4.90;;;;;;;9.44;79.55;99775.03;4191976;28;20044;-73
2022/11/19 01:45:07;;;;;;;10.52;5.57;;;;;;;9.44;79.78;99778.47;4189503;28;20040;-72
2022/11/19 01:47:10;;;;;;;10.32;4.60;;;;;;;9.42;79.74;99775.00;4195233;28;20045;-72
2022/11/19 01:49:17;;;;;;;8.57;4.57;;;;;;;9.41;79.47;99782.78;4198361;28;20051;-72
2022/11/19 01:51:24;;;;;;;8.45;4.00;;;;;;;9.43;79.80;99775.88;4186355;28;20041;-72
2022/11/19 01:53:30;;;;;;;8.77;4.88;;;;;;;9.39;79.25;99774.97;4184301;28;20543;-72
2022/11/19 01:55:33;;;;;;;10.40;4.53;;;;;;;9.37;79.38;99787.06;4191718;28;20498;-71
2022/11/19 01:57:39;;;;;;;9.45;3.97;;;;;;;9.36;79.07;99785.34;4189986;28;20037;-71
2022/11/19 01:59:47;;;;;;;9.10;4.35;;;;;;;9.36;79.32;99785.34;4193379;28;20032;-72
2022/11/19 02:01:49;;;;;;;6.38;3.78;;;;;;;9.32;79.68;99782.72;4198747;28;20098;-71
2022/11/19 02:03:53;;;;;;;7.80;3.60;;;;;;;9.29;79.42;99780.06;4198093;28;20044;-72
2022/11/19 02:05:56;;;;;;;5.38;3.35;;;;;;;9.30;79.83;99781.81;4196990;28;20388;-71
2022/11/19 02:07:59;;;;;;;11.02;4.93;;;;;;;9.26;79.97;99778.34;4198118;28;20506;-71
2022/11/19 02:10:06;;;;;;;7.38;3.60;;;;;;;9.25;79.52;99776.59;4192900;28;20037;-71
2022/11/19 02:12:19;;;;;;;6.03;3.42;;;;;;;9.22;79.49;99782.63;4192224;28;20076;-72
2022/11/19 02:14:40;;;;;;;7.25;4.78;;;;;;;9.20;79.45;99779.16;4196995;28;20090;-72
2022/11/19 02:16:52;;;;;;;7.85;3.63;;;;;;;9.19;79.63;99784.31;4197954;28;20064;-72
2022/11/19 02:19:03;;;;;;;8.45;3.83;;;;;;;9.18;79.97;99777.41;4199275;28;20044;-72
2022/11/19 02:21:18;;;;;;;6.82;3.90;;;;;;;9.19;79.95;99790.38;4193938;28;20510;-72
2022/11/19 02:23:38;;;;;;;5.47;3.00;;;;;;;9.15;80.00;99787.75;4198152;28;20387;-71
2022/11/19 02:26:05;;;;;;;6.22;3.80;;;;;;;9.13;80.08;99784.28;4198964;28;20510;-72
2022/11/19 02:28:31;;;;;;;6.18;2.92;;;;;;;9.13;79.96;99785.13;4195509;28;20434;-72
2022/11/19 02:30:38;;;;;;;7.40;3.85;;;;;;;9.15;80.31;99777.38;4198801;28;20060;-72
2022/11/19 02:32:53;;;;;;;6.55;3.63;;;;;;;9.13;80.39;99781.69;4197793;28;20049;-72
2022/11/19 02:34:58;;;;;;;10.32;3.78;;;;;;;9.11;80.66;99778.19;4197653;28;20510;-72
2022/11/19 02:37:05;;;;;;;;;;;;;;;9.05;80.56;99786.78;4199242;28;20055;-72
2022/11/19 02:39:16;;;;;;;7.97;3.95;;;;;;;9.06;80.49;99784.19;4197033;28;20406;-72
2022/11/19 02:41:36;;;;;;;10.38;3.45;;;;;;;9.09;80.44;99781.63;4195169;28;20482;-72
2022/11/19 02:43:41;;;;;;;6.13;4.20;;;;;;;9.09;80.25;99781.63;4195496;28;20040;-72
2022/11/19 02:45:50;;;;;;;8.13;4.28;;;;;;;9.13;80.43;99776.50;4195908;28;20473;-72
2022/11/19 02:47:56;;;;;;;9.55;4.65;;;;;;;9.12;80.25;99783.38;4189934;28;20037;-72
2022/11/19 02:50:03;;;;;;;8.13;4.25;;;;;;;9.12;80.73;99783.38;4195231;28;20036;-72
2022/11/19 02:52:07;;;;;;;8.60;3.92;;;;;;;9.11;80.26;99783.38;4198544;28;20098;-72
2022/11/19 02:54:10;;;;;;;9.38;3.80;;;;;;;9.11;80.54;99789.41;4189825;28;20036;-72
2022/11/19 02:56:16;;;;;;;7.25;3.85;;;;;;;9.12;80.33;99788.56;4182791;28;20071;-72
2022/11/19 03:05:39;;;;;;;4.65;3.15;;;;;;;9.02;80.48;99787.66;4192718;28;20040;-71
2022/11/19 03:07:41;;;;;;;6.32;4.00;;;;;;;8.98;80.16;99785.88;4181826;28;20548;-71
2022/11/19 03:09:47;;;;;;;10.45;5.15;;;;;;;9.02;80.31;99786.75;4182803;28;20098;-71
2022/11/19 03:11:58;;;;;;;6.78;3.78;;;;;;;9.03;80.39;99786.75;4188618;28;20037;-72
2022/11/19 03:16:42;;;;;;;11.07;3.90;;;;;;;9.03;79.92;99791.09;4192340;28;20040;-71
2022/11/19 03:18:49;;;;;;;9.35;5.63;;;;;;;9.06;80.50;99801.50;4182830;28;20052;-71
2022/11/19 03:20:56;;;;;;;7.20;4.70;;;;;;;9.09;80.30;99802.38;4196968;28;20036;-71
2022/11/19 03:23:05;;;;;;;10.23;4.43;;;;;;;9.12;80.58;99796.34;4197143;28;20127;-71
2022/11/19 03:25:12;;;;;;;8.18;4.07;;;;;;;9.11;80.35;99802.38;4193932;28;20082;-71
2022/11/19 03:27:18;;;;;;;9.50;4.30;;;;;;;9.15;80.54;99803.31;4181466;28;20049;-71
2022/11/19 03:29:24;;;;;;;7.97;4.13;;;;;;;9.18;80.12;99803.31;4194960;28;20040;-72
2022/11/19 03:31:29;;;;;;;8.35;4.50;;;;;;;9.15;80.51;99804.16;4187586;28;20041;-71
2022/11/19 03:33:37;;;;;;;6.03;4.03;;;;;;;9.17;80.85;99806.75;4190678;28;20041;-72
2022/11/19 03:35:43;;;;;;;7.15;4.57;;;;;;;9.19;79.90;99812.84;4197644;28;20091;-72
2022/11/19 03:37:51;;;;;;;6.85;4.30;;;;;;;9.19;80.22;99805.06;4194373;28;20521;-72
2022/11/19 03:39:57;;;;;;;6.30;3.40;;;;;;;9.19;80.24;99802.47;4193933;28;20090;-72
2022/11/19 03:42:01;;;;;;;6.28;3.90;;;;;;;9.20;80.61;99804.19;4191367;28;20048;-72
2022/11/19 03:44:08;;;;;;;9.60;4.53;;;;;;;9.20;80.07;99809.38;4195896;28;20044;-72
2022/11/19 03:46:16;;;;;;;7.90;4.53;;;;;;;9.19;80.48;99807.66;4189319;28;20079;-72
2022/11/19 03:48:22;;;;;;;8.00;5.10;;;;;;;9.21;79.74;99812.03;4192008;28;20560;-72
2022/11/19 03:50:31;;;;;;;7.93;5.13;;;;;;;9.20;80.22;99811.97;4180211;28;20095;-72
2022/11/19 03:52:33;;;;;;;10.48;4.20;;;;;;;9.20;80.32;99806.78;4181130;28;20040;-72
2022/11/19 03:54:36;;;;;;;8.95;5.88;;;;;;;9.18;80.24;99816.28;4193956;28;20086;-72
2022/11/19 03:56:41;;;;;;;8.88;4.05;;;;;;;9.16;80.50;99818.00;4195838;28;20407;-72
2022/11/19 03:58:45;;;;;;;;;;;;;;;9.08;80.18;99810.13;4190359;28;20487;-71
2022/11/19 04:00:48;;;;;;;6.22;4.38;;;;;;;9.09;80.67;99814.47;4195295;28;19920;-71
2022/11/19 04:02:50;;;;;;;13.40;5.35;;;;;;;9.14;80.83;99814.53;4192451;28;20033;-71
2022/11/19 04:04:52;;;;;;;7.85;3.95;;;;;;;9.15;80.26;99816.28;4179948;28;20092;-72
2022/11/19 04:06:56;;;;;;;7.50;3.97;;;;;;;9.16;79.77;99815.41;4178129;28;20053;-72
2022/11/19 04:08:59;;;;;;;5.50;4.40;;;;;;;9.15;80.10;99816.28;4189198;28;20041;-72
2022/11/19 04:11:02;;;;;;;8.02;4.20;;;;;;;9.16;80.58;99813.69;4185525;28;20045;-71
2022/11/19 04:13:04;;;;;;;6.22;3.97;;;;;;;9.19;80.49;99818.03;4184471;28;20744;-72
2022/11/19 04:15:09;;;;;;;7.15;4.00;;;;;;;9.20;79.92;99819.75;4195805;28;20434;-71
2022/11/19 04:17:13;;;;;;;8.32;4.85;;;;;;;9.19;80.39;99820.63;4196159;28;20036;-72
2022/11/19 04:19:17;;;;;;;8.88;4.65;;;;;;;9.19;80.67;99812.84;4195473;28;20045;-72
2022/11/19 04:21:20;;;;;;;7.20;4.65;;;;;;;9.20;80.40;99819.75;4189189;28;20074;-72
2022/11/19 04:23:24;;;;;;;5.75;3.97;;;;;;;9.21;80.54;99824.09;4190286;28;20402;-72
2022/11/19 04:25:27;;;;;;;8.02;4.25;;;;;;;9.17;80.75;99827.50;4194176;28;20502;-72
2022/11/19 04:27:31;;;;;;;9.45;4.00;;;;;;;9.15;80.53;99824.03;4195877;28;20465;-72
2022/11/19 04:29:34;;;;;;;7.75;3.88;;;;;;;9.16;80.53;99818.88;4188115;28;20029;-72
2022/11/19 04:31:37;;;;;;;9.48;5.05;;;;;;;9.18;80.65;99818.88;4180575;28;20095;-72
2022/11/19 04:33:40;;;;;;;6.95;3.80;;;;;;;9.20;80.73;99817.16;4178500;28;20057;-71
2022/11/19 04:35:44;;;;;;;7.55;4.68;;;;;;;9.19;80.74;99821.50;4183910;28;20047;-72
2022/11/19 04:37:47;;;;;;;17.48;7.55;;;;;;;9.17;81.02;99819.72;4195733;28;20048;-71
2022/11/19 04:39:51;;;;;;;7.05;3.70;;;;;;;9.20;80.85;99824.94;4179252;28;20045;-71
2022/11/19 04:41:54;;;;;;;10.27;4.28;;;;;;;9.19;80.51;99815.44;4180532;28;20041;-72
2022/11/19 04:43:57;;;;;;;24.50;7.55;;;;;;;9.17;80.76;99825.81;4179683;28;20094;-71
2022/11/19 04:46:00;;;;;;;8.50;4.47;;;;;;;9.19;80.76;99823.22;4179202;28;20045;-71
2022/11/19 04:48:02;;;;;;;7.82;4.40;;;;;;;9.22;80.76;99818.06;4180473;28;20080;-72
2022/11/19 04:50:06;;;;;;;9.45;4.80;;;;;;;9.22;80.52;99823.25;4185569;28;20514;-72
2022/11/19 04:52:09;;;;;;;9.02;5.20;;;;;;;9.24;80.72;99831.91;4196899;28;20441;-72
2022/11/19 04:54:12;;;;;;;5.97;3.83;;;;;;;9.25;80.50;99824.13;4196262;28;20469;-72
2022/11/19 04:56:16;;;;;;;10.02;4.63;;;;;;;9.29;80.23;99840.63;4196391;28;20033;-71
2022/11/19 04:58:19;;;;;;;5.93;3.78;;;;;;;9.25;80.38;99831.06;4198606;28;20048;-72
2022/11/19 05:00:22;;;;;;;9.98;5.18;;;;;;;9.28;80.70;99833.69;4184030;28;20052;-72
2022/11/19 05:02:25;;;;;;;13.13;5.25;;;;;;;9.29;80.85;99832.84;4198513;28;20406;-72
2022/11/19 05:04:27;;;;;;;10.50;5.13;;;;;;;9.29;80.46;99835.44;4194772;28;20071;-71
2022/11/19 05:06:30;;;;;;;10.00;4.75;;;;;;;9.29;80.77;99835.44;4197970;28;20099;-72
2022/11/19 05:08:33;;;;;;;11.23;6.22;;;;;;;9.25;80.53;99837.09;4200177;28;20044;-72
2022/11/19 05:10:36;;;;;;;8.93;5.35;;;;;;;9.28;80.65;99845.78;4195631;28;20037;-72
2022/11/19 05:12:40;;;;;;;6.53;4.65;;;;;;;9.26;80.85;99835.41;4198484;28;20486;-72
2022/11/19 05:14:43;;;;;;;8.05;5.07;;;;;;;9.29;80.62;99842.31;4197616;28;20494;-72
2022/11/19 05:16:46;;;;;;;10.43;5.03;;;;;;;9.28;81.02;99844.06;4199792;28;20524;-72
2022/11/19 05:18:49;;;;;;;8.52;5.60;;;;;;;9.26;80.31;99836.25;4196277;28;20043;-72
2022/11/19 05:20:52;;;;;;;6.28;4.18;;;;;;;9.22;80.58;99836.22;4195226;28;20037;-72
2022/11/19 05:22:55;;;;;;;7.38;3.83;;;;;;;9.22;80.69;99833.63;4194689;28;20461;-72
2022/11/19 05:24:58;;;;;;;5.50;3.65;;;;;;;9.23;80.67;99840.56;4198349;28;20513;-72
2022/11/19 05:27:00;;;;;;;8.02;4.00;;;;;;;9.23;80.43;99841.41;4184707;28;20033;-72
2022/11/19 05:29:05;;;;;;;7.13;3.88;;;;;;;9.19;80.59;99838.78;4184418;28;20055;-72
2022/11/19 05:31:08;;;;;;;11.30;5.05;;;;;;;9.20;80.90;99835.31;4183383;28;20087;-72
2022/11/19 05:33:12;;;;;;;6.65;4.40;;;;;;;9.21;80.79;99837.97;4198106;28;20071;-72
2022/11/19 05:35:15;;;;;;;;;;;;;;;9.11;80.59;99843.03;4192984;28;20037;-71
2022/11/19 05:37:18;;;;;;;10.95;5.78;;;;;;;9.28;80.23;99841.47;4194386;28;19950;-71
2022/11/19 05:39:21;;;;;;;11.45;6.90;;;;;;;9.47;78.34;99850.28;4197388;28;20491;-71
2022/11/19 05:41:24;;;;;;;15.25;8.13;;;;;;;9.28;78.45;99845.78;4191454;28;20041;-71
2022/11/19 05:43:27;;;;;;;16.08;10.07;;;;;;;9.16;78.59;99849.13;4189649;28;20047;-71
2022/11/19 05:45:31;;;;;;;19.33;11.02;;;;;;;9.18;78.32;99843.09;4192444;28;20041;-71
2022/11/19 05:47:34;;;;;;;13.65;10.73;;;;;;;9.19;77.32;99846.56;4181925;28;20285;-71
2022/11/19 05:49:37;;;;;;;16.65;10.95;;;;;;;9.02;77.59;99847.28;4192564;28;20048;-72
2022/11/19 05:51:39;;;;;;;15.63;11.05;;;;;;;8.92;77.69;99860.97;4194842;28;20101;-71
2022/11/19 05:53:43;;;;;;;11.35;8.77;;;;;;;8.86;78.36;99860.91;4196923;28;20037;-72
2022/11/19 05:55:46;;;;;;;13.88;9.57;;;;;;;8.73;78.63;99855.59;4198789;28;20036;-71
2022/11/19 05:57:49;;;;;;;17.80;12.63;;;;;;;8.77;78.67;99858.22;4181633;28;20037;-71
2022/11/19 05:59:52;;;;;;;19.40;12.30;;;;;;;8.82;78.44;99851.34;4185840;28;20090;-71
2022/11/19 06:01:56;;;;;;;20.17;11.15;;;;;;;8.80;78.50;99856.50;4188579;28;20044;-72
2022/11/19 06:03:59;;;;;;;32.33;20.25;;;;;;;8.84;78.03;99857.44;4194784;28;20036;-72
2022/11/19 06:06:02;;;;;;;20.17;13.52;;;;;;;8.78;78.16;99867.72;4194145;28;20110;-71
2022/11/19 06:08:05;;;;;;;20.65;12.20;;;;;;;8.72;78.27;99865.94;4195366;28;20036;-71
2022/11/19 06:10:09;;;;;;;17.00;13.13;;;;;;;8.71;78.41;99866.78;4194264;28;20441;-71
2022/11/19 06:12:12;;;;;;;22.20;13.82;;;;;;;8.77;78.16;99863.41;4195962;28;20129;-71
2022/11/19 06:14:15;;;;;;;25.40;13.55;;;;;;;8.75;77.76;99863.38;4194045;28;20405;-71
2022/11/19 06:16:17;;;;;;;18.58;14.45;;;;;;;8.69;78.27;99856.41;4194054;28;20082;-71
2022/11/19 06:18:22;;;;;;;20.65;14.13;;;;;;;8.65;78.47;99867.56;4198385;28;20549;-71
2022/11/19 06:20:24;;;;;;;16.98;14.00;;;;;;;8.69;78.36;99860.72;4193704;28;20041;-71
2022/11/19 06:22:27;;;;;;;22.63;13.82;;;;;;;8.66;78.27;99858.94;4190846;28;20047;-71
2022/11/19 06:24:30;;;;;;;19.88;15.93;;;;;;;8.68;78.21;99865.00;4198173;28;20040;-71
2022/11/19 06:26:33;;;;;;;21.75;15.70;;;;;;;8.62;78.13;99866.69;4199000;28;20043;-71
2022/11/19 06:28:36;;;;;;;22.73;15.95;;;;;;;8.60;78.38;99869.25;4198900;28;20033;-71
2022/11/19 06:30:39;;;;;;;23.10;15.60;;;;;;;8.61;78.29;99858.00;4197708;28;20079;-71
2022/11/19 06:32:41;;;;;;;22.17;15.27;;;;;;;8.63;79.06;99863.22;4199045;28;20107;-72
2022/11/19 06:34:46;;;;;;;17.92;13.35;;;;;;;8.59;78.90;99862.31;4198058;28;20037;-71
2022/11/19 06:36:48;;;;;;;21.92;13.25;;;;;;;8.57;78.95;99869.19;4197238;28;20068;-71
2022/11/19 06:38:52;;;;;;;15.27;11.90;;;;;;;8.56;79.28;99865.72;4190859;28;20044;-71
2022/11/19 06:40:55;;;;;;;19.83;13.05;;;;;;;8.59;79.52;99870.09;4198786;28;20033;-71
2022/11/19 06:42:58;;;;;;;18.20;14.40;;;;;;;8.63;79.46;99869.28;4180851;28;20095;-71
2022/11/19 06:45:01;;;;;;;21.08;14.65;;;;;;;8.65;79.43;99872.75;4197908;28;20413;-71
2022/11/19 06:47:03;;;;;;;22.13;15.82;;;;;;;8.64;79.16;99871.00;4198728;28;20101;-71
2022/11/19 06:49:06;;;;;;;18.50;13.88;;;;;;;8.64;79.39;99877.91;4198626;28;20036;-71
2022/11/19 06:51:10;;;;;;;18.65;14.45;;;;;;;8.63;79.27;99874.47;4197088;28;20044;-72
2022/11/19 06:53:13;;;;;;;16.08;12.43;;;;;;;8.65;79.76;99882.25;4198191;28;20558;-71
2022/11/19 06:55:16;;;;;;;22.02;15.02;;;;;;;8.63;79.54;99883.94;4197259;28;20033;-71
2022/11/19 06:57:19;;;;;;;20.10;16.00;;;;;;;8.66;79.70;99884.88;4181952;28;20048;-71
2022/11/19 06:59:22;;;;;;;24.42;15.80;;;;;;;8.67;79.46;99886.63;4192363;28;20524;-71
2022/11/19 07:01:24;;;;;;;18.73;13.93;;;;;;;8.67;79.07;99884.03;4180599;28;20106;-72
2022/11/19 07:03:28;;;;;;;18.50;14.52;;;;;;;8.70;79.16;99885.75;4185659;28;20064;-71
2022/11/19 07:05:31;;;;;;;18.98;13.30;;;;;;;8.72;78.96;99895.31;4189512;28;20033;-71
2022/11/19 07:07:35;;;;;;;19.00;14.60;;;;;;;8.73;79.08;99886.69;4195894;28;20040;-71
2022/11/19 07:09:38;;;;;;;20.30;13.57;;;;;;;8.76;79.26;99895.34;4184939;28;20041;-71
2022/11/19 07:11:41;;;;;;;20.70;12.30;;;;;;;8.77;78.70;99897.09;4192585;28;20033;-72
2022/11/19 07:16:02;;;;;;;19.30;12.13;;;;;;;8.76;78.60;99897.94;4187895;28;20071;-71
2022/11/19 07:18:05;;;;;;;16.75;12.38;;;;;;;8.75;78.78;99894.47;4196610;28;20548;-71
2022/11/19 07:20:10;;;;;;;18.05;12.63;;;;;;;8.73;78.71;99897.06;4188608;28;20037;-72
2022/11/19 07:22:13;;;;;;;15.23;10.40;;;;;;;8.72;78.89;99895.31;4187486;28;20037;-71
2022/11/19 07:24:18;;;;;;;20.38;13.27;;;;;;;8.85;78.39;99898.91;4180727;28;20769;-71
2022/11/19 07:26:21;;;;;;;18.80;12.30;;;;;;;8.81;78.20;99899.72;4180375;28;20036;-71
2022/11/19 07:28:24;;;;;;;22.42;13.35;;;;;;;8.80;77.99;99903.16;4181455;28;20052;-72
2022/11/19 07:30:27;;;;;;;17.10;11.75;;;;;;;8.77;78.36;99897.09;4180277;28;20565;-71
2022/11/19 07:32:30;;;;;;;16.35;11.77;;;;;;;8.74;78.10;99897.91;4181381;28;20041;-72
2022/11/19 07:34:32;;;;;;;15.82;10.43;;;;;;;8.68;78.34;99903.88;4187061;28;20036;-72
2022/11/19 07:36:36;;;;;;;17.60;11.80;;;;;;;8.78;78.05;99909.19;4196877;28;20114;-72
2022/11/19 07:38:38;;;;;;;14.73;11.02;;;;;;;8.77;78.29;99910.03;4193550;28;20037;-71
2022/11/19 07:40:43;;;;;;;14.23;9.57;;;;;;;8.87;77.66;99917.09;4181309;28;20487;-71
2022/11/19 07:42:51;;;;;;;14.00;9.98;;;;;;;8.76;77.50;99926.44;4188525;28;20039;-71
2022/11/19 07:44:54;;;;;;;13.35;9.95;;;;;;;8.67;77.30;99922.88;4191933;28;20055;-72
2022/11/19 07:46:57;;;;;;;15.45;10.05;;;;;;;8.59;77.54;99931.41;4195790;28;20058;-72
2022/11/19 07:49:00;;;;;;;13.90;10.10;;;;;;;8.61;77.38;99935.75;4191533;28;20422;-71
2022/11/19 07:51:03;;;;;;;16.55;9.65;;;;;;;8.66;76.66;99935.78;4186154;28;20041;-71
2022/11/19 07:53:06;;;;;;;15.70;9.95;;;;;;;8.49;76.92;99946.81;4180665;28;20045;-71
2022/11/19 07:55:10;;;;;;;13.13;8.13;;;;;;;8.37;76.83;99947.47;4189207;28;20048;-71
2022/11/19 07:57:14;;;;;;;10.90;8.43;;;;;;;8.34;76.84;99941.38;4190772;28;20040;-71
2022/11/19 07:59:17;;;;;;;11.02;7.85;;;;;;;8.24;77.27;99945.56;4195523;28;20041;-70
2022/11/19 08:01:23;;;;;;;11.82;8.35;;;;;;;8.22;77.43;99955.03;4181689;28;20123;-71
2022/11/19 08:03:26;;;;;;;11.50;7.65;;;;;;;8.23;77.26;99948.13;4183824;28;20033;-71
2022/11/19 08:05:29;;;;;;;12.13;8.18;;;;;;;8.24;76.53;99953.31;4180781;28;20041;-71
2022/11/19 08:07:32;;;;;;;12.43;7.97;;;;;;;8.18;76.63;99954.09;4187068;28;20036;-71
2022/11/19 08:09:34;;;;;;;15.77;10.43;;;;;;;8.02;77.17;99952.97;4190622;28;20111;-71
2022/11/19 08:11:37;;;;;;;12.88;8.57;;;;;;;7.97;77.69;99952.03;4186080;28;20446;-71
2022/11/19 08:13:41;;;;;;;11.52;8.63;;;;;;;7.96;77.54;99941.66;4187933;28;20560;-71
2022/11/19 08:15:44;;;;;;;12.23;7.43;;;;;;;7.83;78.18;99954.38;4192104;28;20105;-71
2022/11/19 08:20:09;;;;;;;11.13;7.53;;;;;;;7.90;78.41;99952.78;4192722;28;20051;-70
2022/11/19 08:22:12;;;;;;;9.52;6.85;;;;;;;7.92;78.57;99955.41;4182983;28;20044;-70
2022/11/19 08:24:16;;;;;;;9.52;6.82;;;;;;;7.85;78.77;99960.44;4186747;28;20067;-70
2022/11/19 08:26:20;;;;;;;8.77;6.50;;;;;;;7.82;78.35;99962.13;4189549;28;20048;-70
2022/11/19 08:28:22;;;;;;;10.25;6.88;;;;;;;7.78;78.71;99962.91;4195924;28;20090;-72
2022/11/19 08:30:27;;;;;;;11.27;7.10;;;;;;;7.75;78.30;99970.63;4184845;28;20539;-71
2022/11/19 08:32:29;;;;;;;11.45;7.47;;;;;;;7.68;78.56;99962.75;4178970;28;20049;-71
2022/11/19 08:34:33;;;;;;;9.40;7.38;;;;;;;7.60;78.87;99966.91;4162141;28;20053;-71
2022/11/19 08:36:36;;;;;;;8.52;6.57;;;;;;;7.63;78.92;99964.38;4182154;28;20368;-71
2022/11/19 08:38:38;;;;;;;10.20;7.03;;;;;;;7.55;79.16;99965.97;4196997;28;20539;-71
2022/11/19 08:40:41;;;;;;;9.80;7.25;;;;;;;7.56;78.70;99964.25;4197299;28;20102;-71
2022/11/19 08:42:58;;;;;;;7.97;6.05;;;;;;;7.56;79.04;99966.81;4197016;28;20075;-71
2022/11/19 08:45:01;;;;;;;10.32;7.63;;;;;;;7.68;78.03;99970.50;4193651;28;20080;-71
2022/11/19 08:47:05;;;;;;;12.75;9.48;;;;;;;7.77;77.96;99976.69;4196980;28;20032;-71
2022/11/19 08:49:08;;;;;;;11.07;7.90;;;;;;;7.67;78.33;99973.94;4195674;28;20105;-71
2022/11/19 08:51:13;;;;;;;11.68;9.05;;;;;;;7.67;77.85;99976.53;4197099;28;20044;-71
2022/11/19 08:53:16;;;;;;;13.57;9.95;;;;;;;7.62;77.58;99979.88;4190489;28;20037;-71
2022/11/19 08:55:19;;;;;;;11.48;8.68;;;;;;;7.49;77.83;99983.94;4189999;28;20044;-72
2022/11/19 08:57:22;;;;;;;10.18;8.18;;;;;;;7.46;78.23;99991.63;4195589;28;20062;-71
2022/11/19 08:59:24;;;;;;;10.00;8.38;;;;;;;7.58;77.34;99986.72;4196359;28;20445;-71
2022/11/19 09:01:27;;;;;;;8.95;7.05;;;;;;;7.55;77.19;99991.84;4190875;28;20037;-71
2022/11/19 09:03:31;;;;;;;11.88;7.45;;;;;;;7.60;76.70;99997.94;4187586;28;20494;-71
2022/11/19 09:05:34;;;;;;;10.70;7.93;;;;;;;7.58;76.76;99997.06;4193005;28;20049;-71
2022/11/19 09:07:37;;;;;;;10.77;8.07;;;;;;;7.44;77.31;100003.69;4179688;28;20091;-71
2022/11/19 09:09:40;;;;;;;10.50;8.38;;;;;;;7.47;75.70;99998.56;4183837;28;20041;-71
2022/11/19 09:11:43;;;;;;;10.95;8.30;;;;;;;7.33;77.04;100009.50;4189874;28;20037;-71
2022/11/19 09:13:46;;;;;;;10.85;7.82;;;;;;;7.12;77.12;100011.66;4186737;28;20513;-71
2022/11/19 09:15:49;;;;;;;11.82;8.73;;;;;;;7.14;77.19;100012.53;4195146;28;20040;-72
2022/11/19 09:17:52;;;;;;;11.43;8.90;;;;;;;6.90;77.35;100020.66;4194930;28;20037;-71
2022/11/19 09:19:56;;;;;;;11.88;8.82;;;;;;;6.76;77.42;100023.81;4194249;28;20045;-71
2022/11/19 09:21:59;;;;;;;12.05;9.65;;;;;;;6.58;77.99;100024.25;4180341;28;20037;-72
2022/11/19 09:24:02;;;;;;;10.32;8.43;;;;;;;6.62;78.05;100030.38;4185041;28;20040;-71
2022/11/19 09:26:07;;;;;;;11.43;9.40;;;;;;;6.82;77.51;100031.69;4178777;28;20033;-74
2022/11/19 09:28:10;;;;;;;9.70;7.68;;;;;;;6.83;76.64;100029.97;4187864;28;20029;-73
2022/11/19 09:30:14;;;;;;;10.35;7.57;;;;;;;6.64;77.90;100034.75;4196590;28;20123;-73
2022/11/19 09:32:16;;;;;;;12.82;8.40;;;;;;;6.91;76.68;100043.97;4193767;28;20098;-72
2022/11/19 09:34:26;;;;;;;9.40;7.13;;;;;;;6.66;77.57;100047.69;4191399;28;20040;-72
2022/11/19 09:36:31;;;;;;;10.93;8.32;;;;;;;6.46;78.11;100049.78;4196790;28;20037;-72
2022/11/19 09:38:34;;;;;;;9.25;7.65;;;;;;;6.57;77.60;100047.47;4194713;28;20062;-72
2022/11/19 09:40:37;;;;;;;11.07;7.95;;;;;;;6.71;77.87;100051.25;4194227;28;20078;-71
2022/11/19 09:42:49;;;;;;;12.30;8.90;;;;;;;6.80;77.34;100048.00;4179608;28;20037;-71
2022/11/19 09:45:02;;;;;;;12.07;9.10;;;;;;;6.78;76.84;100055.72;4181545;28;20076;-70
2022/11/19 09:47:17;;;;;;;11.50;7.78;;;;;;;6.66;77.72;100052.88;4189765;28;20036;-72
2022/11/19 09:49:27;;;;;;;9.73;7.88;;;;;;;6.59;77.47;100053.56;4199239;28;20048;-71
2022/11/19 09:51:34;;;;;;;10.85;7.90;;;;;;;6.60;77.77;100047.53;4198833;28;20441;-72
2022/11/19 09:53:43;;;;;;;9.60;7.30;;;;;;;6.53;77.79;100051.69;4196508;28;20043;-66
2022/11/19 09:55:48;;;;;;;14.13;10.63;;;;;;;6.52;77.44;100059.41;4198244;28;20044;-66
2022/11/19 09:57:54;;;;;;;11.43;8.55;;;;;;;6.53;77.42;100051.69;4189579;28;20386;-67
2022/11/19 10:00:00;;;;;;;12.75;9.63;;;;;;;6.60;76.97;100060.44;4192549;28;20474;-67
2022/11/19 10:02:17;;;;;;;18.05;13.15;;;;;;;6.49;77.58;100056.75;4195163;28;21543;-67
2022/11/19 10:04:22;;;;;;;16.85;13.43;;;;;;;6.51;77.53;100062.81;4190559;28;20043;-69
2022/11/19 10:06:29;;;;;;;16.95;13.40;;;;;;;6.45;76.90;100053.22;4188162;28;20029;-63